Time;durP1;ratioP1;P1;durP2;ratioP2;P2;SDS_P1;SDS_P2;PMS_P1;PMS_P2;Temp;Humidity;BMP_temperature;BMP_pressure;BME280_temperature;BME280_humidity;BME280_pressure;Samples;Min_cycle;Max_cycle;Signal;HPM_P1;HPM_P2
2022/07/19 00:00:06;;;;;;;5.32;2.88;;;;;;;;;;5079841;28;20098;-85
2022/07/19 00:02:33;;;;;;;6.18;2.78;;;;;;;;;;5061926;28;20048;-84
2022/07/19 00:05:00;;;;;;;3.15;2.45;;;;;;;;;;5061396;28;20098;-83
2022/07/19 00:07:27;;;;;;;4.45;2.63;;;;;;;;;;5062297;28;20091;-84
2022/07/19 00:09:55;;;;;;;2.40;2.22;;;;;;;;;;5061455;28;20056;-84
2022/07/19 00:12:22;;;;;;;4.35;2.60;;;;;;;;;;5061839;28;20438;-85
2022/07/19 00:14:49;;;;;;;4.05;2.95;;;;;;;;;;5061848;28;20051;-84
2022/07/19 00:17:16;;;;;;;3.72;2.80;;;;;;;;;;5061820;28;20056;-84
2022/07/19 00:19:43;;;;;;;4.53;2.67;;;;;;;;;;5079948;28;20055;-84
2022/07/19 00:22:13;;;;;;;7.75;2.40;;;;;;;;;;5062074;28;20044;-85
2022/07/19 00:24:40;;;;;;;4.47;2.70;;;;;;;;;;5062326;28;20336;-83
2022/07/19 00:27:08;;;;;;;3.38;2.60;;;;;;;;;;5061753;28;20049;-83
2022/07/19 00:29:35;;;;;;;2.40;2.22;;;;;;;;;;5062556;28;20113;-84
2022/07/19 00:32:02;;;;;;;3.20;2.13;;;;;;;;;;5062227;28;20075;-85
2022/07/19 00:34:29;;;;;;;4.75;2.40;;;;;;;;;;5061953;28;20048;-83
2022/07/19 00:36:56;;;;;;;2.90;2.25;;;;;;;;;;5061387;28;20414;-84
2022/07/19 00:39:23;;;;;;;2.80;2.42;;;;;;;;;;5062239;28;20102;-84
2022/07/19 00:41:51;;;;;;;3.95;2.40;;;;;;;;;;5061801;28;20044;-85
2022/07/19 00:44:21;;;;;;;2.47;2.20;;;;;;;;;;5080577;28;20094;-84
2022/07/19 00:46:48;;;;;;;2.28;2.05;;;;;;;;;;5080054;28;20049;-84
2022/07/19 00:49:16;;;;;;;3.33;2.47;;;;;;;;;;5061969;28;20052;-85
2022/07/19 00:51:43;;;;;;;2.55;2.35;;;;;;;;;;5062747;28;20074;-84
2022/07/19 00:54:12;;;;;;;4.80;2.63;;;;;;;;;;5061860;28;20060;-84
2022/07/19 00:56:41;;;;;;;2.90;2.60;;;;;;;;;;5061596;28;20044;-84
2022/07/19 00:59:08;;;;;;;4.07;2.42;;;;;;;;;;5061213;28;20055;-84
2022/07/19 01:01:35;;;;;;;2.90;2.70;;;;;;;;;;5061823;28;20053;-83
2022/07/19 01:04:04;;;;;;;3.20;2.42;;;;;;;;;;5061832;28;20058;-84
2022/07/19 01:06:31;;;;;;;2.45;1.95;;;;;;;;;;5079500;28;20490;-84
2022/07/19 01:08:58;;;;;;;4.40;2.50;;;;;;;;;;5062010;28;20052;-84
2022/07/19 01:11:25;;;;;;;2.60;2.20;;;;;;;;;;5061914;28;20044;-85
2022/07/19 01:13:52;;;;;;;4.03;2.10;;;;;;;;;;5061584;28;20045;-84
2022/07/19 01:16:20;;;;;;;4.30;2.58;;;;;;;;;;5061987;28;20140;-84
2022/07/19 01:18:47;;;;;;;2.92;2.72;;;;;;;;;;5079755;28;20080;-84
2022/07/19 01:21:18;;;;;;;2.22;2.05;;;;;;;;;;5080388;28;20048;-85
2022/07/19 01:23:45;;;;;;;4.60;2.60;;;;;;;;;;5062822;28;20053;-85
2022/07/19 01:26:13;;;;;;;2.55;2.35;;;;;;;;;;5062866;28;20044;-84
2022/07/19 01:28:40;;;;;;;2.53;2.33;;;;;;;;;;5046503;28;20413;-84
2022/07/19 01:31:07;;;;;;;2.70;2.20;;;;;;;;;;5063670;28;20050;-85
2022/07/19 01:33:45;;;;;;;3.20;2.45;;;;;;;;;;5064833;28;20502;-85
2022/07/19 01:36:12;;;;;;;4.43;2.60;;;;;;;;;;5064757;28;20496;-85
2022/07/19 01:38:40;;;;;;;3.47;2.25;;;;;;;;;;5082493;28;20095;-84
2022/07/19 01:41:07;;;;;;;3.95;2.55;;;;;;;;;;5061400;28;20399;-83
2022/07/19 01:43:35;;;;;;;2.60;2.40;;;;;;;;;;5061151;28;20075;-83
2022/07/19 01:46:03;;;;;;;4.95;2.75;;;;;;;;;;5079530;28;20472;-84
2022/07/19 01:48:30;;;;;;;4.38;2.75;;;;;;;;;;5079265;28;20442;-84
2022/07/19 01:50:58;;;;;;;2.70;2.50;;;;;;;;;;5060803;28;20052;-84
2022/07/19 01:53:25;;;;;;;3.53;2.58;;;;;;;;;;5061179;28;20087;-84
2022/07/19 01:55:52;;;;;;;4.07;2.92;;;;;;;;;;5061594;28;20048;-84
2022/07/19 01:58:19;;;;;;;3.90;2.55;;;;;;;;;;5060942;28;20045;-84
2022/07/19 02:00:47;;;;;;;5.22;2.75;;;;;;;;;;5063739;28;20078;-84
2022/07/19 02:03:14;;;;;;;5.20;2.80;;;;;;;;;;5064184;28;20512;-84
2022/07/19 02:05:41;;;;;;;2.70;2.45;;;;;;;;;;5057367;28;20045;-84
2022/07/19 02:08:09;;;;;;;2.53;2.33;;;;;;;;;;5054837;28;20106;-83
2022/07/19 02:10:36;;;;;;;2.75;2.55;;;;;;;;;;5055971;28;20335;-83
2022/07/19 02:13:03;;;;;;;4.05;2.78;;;;;;;;;;5054693;28;20052;-83
2022/07/19 02:15:30;;;;;;;5.65;2.40;;;;;;;;;;5060184;28;20071;-84
2022/07/19 02:17:57;;;;;;;2.47;2.28;;;;;;;;;;5060359;28;20045;-84
2022/07/19 02:20:24;;;;;;;3.00;2.42;;;;;;;;;;5061894;28;20049;-84
2022/07/19 02:22:52;;;;;;;3.08;2.78;;;;;;;;;;5060216;28;20391;-84
2022/07/19 02:25:19;;;;;;;3.30;2.65;;;;;;;;;;5061815;28;20052;-84
2022/07/19 02:27:47;;;;;;;8.38;2.55;;;;;;;;;;5060442;28;20044;-83
2022/07/19 02:30:16;;;;;;;5.45;2.53;;;;;;;;;;5059978;28;20463;-84
2022/07/19 02:32:44;;;;;;;3.13;2.45;;;;;;;;;;5060851;28;20410;-84
2022/07/19 02:35:12;;;;;;;2.92;2.72;;;;;;;;;;5060537;28;20052;-84
2022/07/19 02:37:40;;;;;;;2.72;2.53;;;;;;;;;;5059359;28;20056;-84
2022/07/19 02:40:09;;;;;;;3.30;2.40;;;;;;;;;;5060759;28;20052;-84
2022/07/19 02:42:36;;;;;;;3.75;2.95;;;;;;;;;;5060116;28;20053;-84
2022/07/19 02:45:04;;;;;;;4.70;2.75;;;;;;;;;;5059935;28;20080;-84
2022/07/19 02:47:31;;;;;;;3.25;2.45;;;;;;;;;;5060578;28;20045;-84
2022/07/19 02:49:58;;;;;;;3.92;2.63;;;;;;;;;;5061506;28;20052;-84
2022/07/19 02:52:25;;;;;;;3.83;2.47;;;;;;;;;;5060506;28;20056;-83
2022/07/19 02:54:52;;;;;;;3.97;2.70;;;;;;;;;;5059898;28;20053;-84
2022/07/19 02:57:19;;;;;;;3.13;2.60;;;;;;;;;;5059696;28;20114;-84
2022/07/19 02:59:46;;;;;;;3.15;2.80;;;;;;;;;;5059512;28;20076;-84
2022/07/19 03:02:14;;;;;;;4.78;2.78;;;;;;;;;;5059355;28;20571;-84
2022/07/19 03:04:41;;;;;;;3.63;2.97;;;;;;;;;;5059403;28;20057;-84
2022/07/19 03:07:08;;;;;;;3.47;2.92;;;;;;;;;;5059162;28;20098;-83
2022/07/19 03:09:35;;;;;;;5.05;2.78;;;;;;;;;;5058906;28;20469;-84
2022/07/19 03:12:03;;;;;;;4.38;2.70;;;;;;;;;;5060999;28;20199;-84
2022/07/19 03:14:30;;;;;;;5.20;2.95;;;;;;;;;;5060889;28;20049;-84
2022/07/19 03:16:57;;;;;;;3.10;2.72;;;;;;;;;;5059433;28;20049;-84
2022/07/19 03:19:26;;;;;;;2.85;2.65;;;;;;;;;;5060524;28;20120;-83
2022/07/19 03:21:54;;;;;;;2.78;2.40;;;;;;;;;;5060948;28;20144;-84
2022/07/19 03:24:21;;;;;;;2.80;2.53;;;;;;;;;;5058492;28;20087;-84
2022/07/19 03:26:48;;;;;;;3.03;2.72;;;;;;;;;;5055816;28;20057;-82
2022/07/19 03:29:16;;;;;;;5.20;2.67;;;;;;;;;;5053410;28;20249;-81
2022/07/19 03:31:43;;;;;;;2.92;2.58;;;;;;;;;;5053686;28;20410;-82
2022/07/19 03:34:10;;;;;;;3.30;2.83;;;;;;;;;;5053861;28;20049;-81
2022/07/19 03:36:38;;;;;;;5.22;2.80;;;;;;;;;;5053677;28;20128;-83
2022/07/19 03:39:05;;;;;;;8.20;2.75;;;;;;;;;;5053992;28;20075;-81
2022/07/19 03:41:32;;;;;;;3.85;2.90;;;;;;;;;;5055170;28;20049;-83
2022/07/19 03:44:00;;;;;;;7.32;2.90;;;;;;;;;;5055146;28;20068;-83
2022/07/19 03:46:28;;;;;;;3.55;2.60;;;;;;;;;;5053610;28;20045;-82
2022/07/19 03:48:56;;;;;;;4.60;3.00;;;;;;;;;;5054658;28;20061;-82
2022/07/19 03:51:24;;;;;;;3.13;2.83;;;;;;;;;;5053779;28;20099;-82
2022/07/19 03:53:51;;;;;;;2.80;2.60;;;;;;;;;;5058656;28;20064;-81
2022/07/19 03:56:20;;;;;;;5.32;2.60;;;;;;;;;;5060549;28;20048;-81
2022/07/19 03:58:50;;;;;;;3.05;2.78;;;;;;;;;;5052299;28;20059;-81
2022/07/19 04:01:18;;;;;;;2.90;2.70;;;;;;;;;;5052511;28;20061;-81
2022/07/19 04:03:49;;;;;;;5.38;2.83;;;;;;;;;;5053145;28;20048;-81
2022/07/19 04:06:17;;;;;;;2.85;2.50;;;;;;;;;;5055681;28;20098;-81
2022/07/19 04:08:44;;;;;;;2.75;2.55;;;;;;;;;;5056575;28;20040;-83
2022/07/19 04:11:11;;;;;;;4.30;3.05;;;;;;;;;;5056703;28;20091;-81
2022/07/19 04:13:38;;;;;;;5.63;3.05;;;;;;;;;;5074219;28;20048;-82
2022/07/19 04:16:06;;;;;;;5.53;3.05;;;;;;;;;;5056488;28;20044;-81
2022/07/19 04:18:33;;;;;;;3.65;2.70;;;;;;;;;;5074074;28;20055;-83
2022/07/19 04:21:00;;;;;;;6.10;3.00;;;;;;;;;;5056335;28;20109;-81
2022/07/19 04:23:28;;;;;;;5.35;2.90;;;;;;;;;;5074119;28;20052;-82
2022/07/19 04:25:55;;;;;;;9.98;3.40;;;;;;;;;;5056424;28;20418;-82
2022/07/19 04:28:23;;;;;;;4.70;2.97;;;;;;;;;;5056572;28;20084;-82
2022/07/19 04:30:50;;;;;;;5.10;3.15;;;;;;;;;;5056350;28;20047;-82
2022/07/19 04:33:18;;;;;;;6.35;2.92;;;;;;;;;;5056049;28;20084;-82
2022/07/19 04:35:45;;;;;;;5.55;3.30;;;;;;;;;;5056157;28;20486;-82
2022/07/19 04:38:13;;;;;;;6.30;3.17;;;;;;;;;;5056101;28;20059;-82
2022/07/19 04:40:40;;;;;;;11.32;3.03;;;;;;;;;;5056454;28;20525;-82
2022/07/19 04:43:07;;;;;;;6.25;3.00;;;;;;;;;;5074033;28;20494;-82
2022/07/19 04:45:34;;;;;;;4.90;3.33;;;;;;;;;;5056017;28;20410;-82
2022/07/19 04:48:01;;;;;;;5.97;3.42;;;;;;;;;;5056004;28;20117;-83
2022/07/19 04:50:29;;;;;;;6.68;3.40;;;;;;;;;;5056237;28;20052;-82
2022/07/19 04:52:56;;;;;;;5.93;3.30;;;;;;;;;;5056151;28;20403;-82
2022/07/19 04:55:23;;;;;;;5.63;3.55;;;;;;;;;;5056121;28;20048;-82
2022/07/19 04:57:50;;;;;;;5.65;3.03;;;;;;;;;;5055779;28;20525;-81
2022/07/19 05:00:17;;;;;;;3.85;2.85;;;;;;;;;;5056009;28;20048;-82
2022/07/19 05:02:44;;;;;;;13.65;3.10;;;;;;;;;;5073738;28;20480;-82
2022/07/19 05:05:12;;;;;;;8.93;3.00;;;;;;;;;;5055789;28;20107;-81
2022/07/19 05:07:39;;;;;;;16.80;3.92;;;;;;;;;;5055675;28;20052;-82
2022/07/19 05:10:07;;;;;;;15.93;3.20;;;;;;;;;;5056194;28;20106;-82
2022/07/19 05:12:34;;;;;;;18.60;3.50;;;;;;;;;;5055697;28;20084;-83
2022/07/19 05:15:01;;;;;;;15.43;4.05;;;;;;;;;;5055622;28;20070;-82
2022/07/19 05:17:28;;;;;;;4.53;2.90;;;;;;;;;;5056083;28;20076;-82
2022/07/19 05:19:55;;;;;;;14.68;2.95;;;;;;;;;;5055845;28;20047;-82
2022/07/19 05:22:24;;;;;;;8.57;2.70;;;;;;;;;;5056016;28;20185;-82
2022/07/19 05:24:53;;;;;;;5.63;2.70;;;;;;;;;;5055124;28;20068;-82
2022/07/19 05:27:20;;;;;;;6.85;2.72;;;;;;;;;;5054902;28;20072;-82
2022/07/19 05:29:48;;;;;;;6.72;2.70;;;;;;;;;;5054800;28;20040;-81
2022/07/19 05:32:15;;;;;;;6.32;2.33;;;;;;;;;;5055056;28;20068;-83
2022/07/19 05:34:42;;;;;;;6.85;2.65;;;;;;;;;;5057026;28;20053;-82
2022/07/19 05:37:09;;;;;;;9.52;2.35;;;;;;;;;;5058893;28;20131;-82
2022/07/19 05:39:37;;;;;;;8.80;2.65;;;;;;;;;;5058622;28;20057;-82
2022/07/19 05:42:04;;;;;;;7.47;2.35;;;;;;;;;;5058581;28;20053;-82
2022/07/19 05:44:31;;;;;;;10.45;2.95;;;;;;;;;;5058338;28;20494;-82
2022/07/19 05:46:58;;;;;;;3.85;2.50;;;;;;;;;;5058682;28;20079;-84
2022/07/19 05:49:25;;;;;;;15.95;2.55;;;;;;;;;;5059048;28;20436;-82
2022/07/19 05:51:52;;;;;;;4.43;2.25;;;;;;;;;;5059165;28;20094;-82
2022/07/19 05:54:20;;;;;;;11.80;2.90;;;;;;;;;;5059124;28;20060;-83
2022/07/19 05:56:47;;;;;;;17.00;3.22;;;;;;;;;;5059131;28;20102;-83
2022/07/19 05:59:14;;;;;;;7.70;2.35;;;;;;;;;;5077041;28;20481;-82
2022/07/19 06:01:41;;;;;;;7.70;2.40;;;;;;;;;;5058702;28;20044;-82
2022/07/19 06:04:08;;;;;;;18.00;3.22;;;;;;;;;;5076888;28;20044;-84
2022/07/19 06:06:36;;;;;;;7.55;2.53;;;;;;;;;;5077342;28;20060;-84
2022/07/19 06:09:04;;;;;;;9.82;2.80;;;;;;;;;;5059072;28;20052;-83
2022/07/19 06:11:32;;;;;;;10.70;2.83;;;;;;;;;;5059785;28;20064;-84
2022/07/19 06:13:59;;;;;;;6.28;2.70;;;;;;;;;;5064480;28;20048;-83
2022/07/19 06:16:26;;;;;;;5.68;2.25;;;;;;;;;;5063338;28;20044;-83
2022/07/19 06:18:54;;;;;;;10.45;2.60;;;;;;;;;;5058955;28;20428;-82
2022/07/19 06:21:22;;;;;;;7.30;2.63;;;;;;;;;;5076405;28;20078;-83
2022/07/19 06:23:49;;;;;;;8.20;3.05;;;;;;;;;;5058876;28;20479;-83
2022/07/19 06:26:17;;;;;;;7.05;2.40;;;;;;;;;;5058972;28;20095;-83
2022/07/19 06:28:44;;;;;;;16.92;3.10;;;;;;;;;;5058439;28;20052;-84
2022/07/19 06:31:12;;;;;;;7.18;2.60;;;;;;;;;;5058432;28;20045;-82
2022/07/19 06:33:40;;;;;;;8.18;2.20;;;;;;;;;;5058395;28;20090;-84
2022/07/19 06:36:07;;;;;;;5.18;1.83;;;;;;;;;;5058307;28;20082;-83
2022/07/19 06:38:35;;;;;;;7.28;1.98;;;;;;;;;;5076340;28;20059;-83
2022/07/19 06:41:02;;;;;;;7.22;2.28;;;;;;;;;;5058417;28;20410;-83
2022/07/19 06:43:29;;;;;;;6.18;2.20;;;;;;;;;;5058722;28;20412;-82
2022/07/19 06:45:57;;;;;;;5.22;2.30;;;;;;;;;;5057988;28;20080;-84
2022/07/19 06:48:24;;;;;;;4.57;2.47;;;;;;;;;;5058428;28;20045;-82
2022/07/19 06:50:51;;;;;;;6.53;2.55;;;;;;;;;;5058543;28;20052;-83
2022/07/19 06:53:18;;;;;;;6.93;2.30;;;;;;;;;;5058402;28;20456;-82
2022/07/19 06:55:46;;;;;;;7.80;2.42;;;;;;;;;;5058201;28;20094;-84
2022/07/19 06:58:13;;;;;;;9.75;2.20;;;;;;;;;;5058227;28;20082;-83
2022/07/19 07:00:40;;;;;;;5.90;2.30;;;;;;;;;;5057869;28;20102;-83
2022/07/19 07:03:07;;;;;;;6.30;2.13;;;;;;;;;;5057991;28;20052;-82
2022/07/19 07:05:35;;;;;;;4.43;2.10;;;;;;;;;;5057840;28;20055;-83
2022/07/19 07:08:02;;;;;;;6.05;2.67;;;;;;;;;;5057899;28;20517;-83
2022/07/19 07:10:29;;;;;;;6.32;2.15;;;;;;;;;;5057660;28;20044;-83
2022/07/19 07:12:56;;;;;;;8.68;2.25;;;;;;;;;;5057558;28;20080;-83
2022/07/19 07:15:24;;;;;;;5.53;2.00;;;;;;;;;;5074717;28;20048;-83
2022/07/19 07:17:52;;;;;;;5.45;1.98;;;;;;;;;;5056813;28;20082;-83
2022/07/19 07:20:19;;;;;;;4.75;2.08;;;;;;;;;;5057009;28;20140;-82
2022/07/19 07:22:46;;;;;;;5.57;1.90;;;;;;;;;;5056877;28;20048;-84
2022/07/19 07:25:13;;;;;;;7.72;2.10;;;;;;;;;;5074636;28;20072;-83
2022/07/19 07:27:42;;;;;;;4.63;1.80;;;;;;;;;;5056833;28;20048;-83
2022/07/19 07:30:10;;;;;;;6.00;2.17;;;;;;;;;;5057688;28;20551;-84
2022/07/19 07:32:37;;;;;;;2.45;1.50;;;;;;;;;;5075248;28;20045;-84
2022/07/19 07:35:04;;;;;;;7.05;1.60;;;;;;;;;;5057452;28;20078;-83
2022/07/19 07:37:32;;;;;;;4.93;1.60;;;;;;;;;;5075131;28;20131;-82
2022/07/19 07:39:59;;;;;;;2.05;1.20;;;;;;;;;;5057363;28;20045;-81
2022/07/19 07:42:26;;;;;;;3.90;1.98;;;;;;;;;;5057532;28;20049;-82
2022/07/19 07:44:53;;;;;;;7.78;1.73;;;;;;;;;;5058126;28;20050;-81
2022/07/19 07:47:20;;;;;;;2.60;1.40;;;;;;;;;;5057332;28;20087;-82
2022/07/19 07:49:50;;;;;;;3.75;1.42;;;;;;;;;;5075112;28;20047;-82
2022/07/19 07:52:17;;;;;;;2.45;1.30;;;;;;;;;;5057151;28;20044;-81
2022/07/19 07:54:44;;;;;;;3.95;1.65;;;;;;;;;;5057223;28;20094;-82
2022/07/19 07:57:31;;;;;;;3.03;1.00;;;;;;;;;;5060241;28;20476;-82
2022/07/19 07:59:59;;;;;;;2.60;1.30;;;;;;;;;;5056886;28;20166;-81
2022/07/19 08:02:26;;;;;;;9.65;1.35;;;;;;;;;;5057641;28;20052;-82
2022/07/19 08:04:54;;;;;;;3.15;1.10;;;;;;;;;;5056693;28;20052;-80
2022/07/19 08:07:21;;;;;;;2.92;1.30;;;;;;;;;;5056176;28;20060;-80
2022/07/19 08:09:48;;;;;;;1.98;1.20;;;;;;;;;;5056660;28;20400;-81
2022/07/19 08:12:15;;;;;;;1.50;1.02;;;;;;;;;;5057081;28;20045;-81
2022/07/19 08:14:42;;;;;;;3.85;0.93;;;;;;;;;;5056576;28;20048;-82
2022/07/19 08:17:09;;;;;;;5.07;1.10;;;;;;;;;;5056950;28;20049;-81
2022/07/19 08:19:37;;;;;;;1.50;0.80;;;;;;;;;;5057528;28;20544;-83
2022/07/19 08:22:04;;;;;;;2.08;1.15;;;;;;;;;;5056982;28;20071;-81
2022/07/19 08:24:31;;;;;;;2.58;1.20;;;;;;;;;;5074766;28;20444;-82
2022/07/19 08:26:58;;;;;;;7.20;1.08;;;;;;;;;;5057106;28;20068;-82
2022/07/19 08:29:25;;;;;;;4.53;1.25;;;;;;;;;;5057194;28;20056;-83
2022/07/19 08:31:53;;;;;;;2.55;0.90;;;;;;;;;;5057248;28;20516;-82
2022/07/19 08:34:20;;;;;;;1.27;0.75;;;;;;;;;;5061240;28;20048;-81
2022/07/19 08:36:47;;;;;;;1.40;1.13;;;;;;;;;;5058160;28;20131;-81
2022/07/19 08:39:14;;;;;;;1.65;0.93;;;;;;;;;;5056218;28;20064;-81
2022/07/19 08:41:44;;;;;;;2.17;1.15;;;;;;;;;;5073933;28;20086;-81
2022/07/19 08:44:12;;;;;;;5.78;1.08;;;;;;;;;;5056456;28;20102;-81
2022/07/19 08:46:44;;;;;;;4.30;1.20;;;;;;;;;;5055931;28;20545;-80
2022/07/19 08:49:11;;;;;;;2.35;1.00;;;;;;;;;;5056224;28;20055;-81
2022/07/19 08:51:38;;;;;;;1.45;1.00;;;;;;;;;;5055817;28;20091;-82
2022/07/19 08:54:06;;;;;;;2.45;1.17;;;;;;;;;;5056195;28;20074;-81
2022/07/19 08:59:19;;;;;;;1.05;0.80;;;;;;;;;;5074125;28;20098;-81
2022/07/19 09:01:46;;;;;;;2.28;1.05;;;;;;;;;;5056354;28;20417;-82
2022/07/19 09:04:15;;;;;;;2.58;1.35;;;;;;;;;;5056930;28;20048;-83
2022/07/19 09:06:44;;;;;;;3.88;1.17;;;;;;;;;;5056807;28;20068;-83
2022/07/19 09:09:12;;;;;;;1.35;0.82;;;;;;;;;;5060075;28;20068;-81
2022/07/19 09:11:53;;;;;;;4.03;1.15;;;;;;;;;;5060120;28;20056;-81
2022/07/19 09:14:21;;;;;;;1.83;1.20;;;;;;;;;;5061591;28;20063;-81
2022/07/19 09:16:55;;;;;;;4.00;0.85;;;;;;;;;;5079057;28;20048;-83
2022/07/19 09:19:24;;;;;;;2.40;0.98;;;;;;;;;;5060447;28;20054;-81
2022/07/19 09:21:52;;;;;;;5.38;1.17;;;;;;;;;;5077443;28;20048;-82
2022/07/19 09:24:19;;;;;;;3.55;1.17;;;;;;;;;;5059941;28;20098;-83
2022/07/19 09:26:59;;;;;;;3.30;1.13;;;;;;;;;;5077657;28;20048;-82
2022/07/19 09:29:27;;;;;;;2.15;1.00;;;;;;;;;;5077728;28;20287;-81
2022/07/19 09:32:02;;;;;;;1.63;1.10;;;;;;;;;;5059311;28;20048;-82
2022/07/19 09:34:33;;;;;;;0.85;0.73;;;;;;;;;;5077956;28;20052;-82
2022/07/19 09:37:09;;;;;;;5.95;1.30;;;;;;;;;;5059269;28;20079;-81
2022/07/19 09:39:41;;;;;;;3.72;1.20;;;;;;;;;;5060430;28;20102;-82
2022/07/19 09:42:09;;;;;;;8.35;1.10;;;;;;;;;;5077637;28;20057;-81
2022/07/19 09:44:36;;;;;;;2.92;1.00;;;;;;;;;;5060012;28;20055;-81
2022/07/19 09:47:03;;;;;;;4.97;1.42;;;;;;;;;;5059798;28;20049;-81
2022/07/19 09:49:38;;;;;;;7.80;1.10;;;;;;;;;;5060798;28;20540;-80
2022/07/19 09:52:05;;;;;;;1.90;1.23;;;;;;;;;;5059567;28;20045;-81
2022/07/19 09:54:32;;;;;;;1.63;1.05;;;;;;;;;;5059356;28;20052;-82
2022/07/19 09:57:00;;;;;;;3.00;1.20;;;;;;;;;;5059775;28;20442;-81
2022/07/19 09:59:27;;;;;;;4.18;0.90;;;;;;;;;;5059313;28;20049;-81
2022/07/19 10:01:55;;;;;;;1.90;0.90;;;;;;;;;;5059694;28;20105;-84
2022/07/19 10:04:24;;;;;;;1.45;0.82;;;;;;;;;;5059343;28;20052;-82
2022/07/19 10:06:51;;;;;;;1.95;1.10;;;;;;;;;;5059273;28;20091;-81
2022/07/19 10:09:20;;;;;;;3.53;1.02;;;;;;;;;;5077493;28;20082;-81
2022/07/19 10:11:55;;;;;;;1.20;0.65;;;;;;;;;;5060927;28;20052;-83
2022/07/19 10:14:22;;;;;;;5.85;1.10;;;;;;;;;;5059982;28;20040;-82
2022/07/19 10:17:05;;;;;;;2.55;1.00;;;;;;;;;;5059097;28;20052;-82
2022/07/19 10:19:38;;;;;;;2.25;1.00;;;;;;;;;;5058163;28;20098;-82
2022/07/19 10:22:07;;;;;;;1.25;1.10;;;;;;;;;;5059521;28;20486;-83
2022/07/19 10:24:44;;;;;;;1.05;0.80;;;;;;;;;;5077393;28;20045;-82
2022/07/19 10:27:12;;;;;;;3.55;0.90;;;;;;;;;;5058930;28;20082;-82
2022/07/19 10:29:39;;;;;;;2.30;1.00;;;;;;;;;;5076995;28;20109;-81
2022/07/19 10:32:08;;;;;;;0.90;0.90;;;;;;;;;;5059558;28;20060;-84
2022/07/19 10:34:35;;;;;;;1.30;1.20;;;;;;;;;;5059490;28;20098;-81
2022/07/19 10:37:03;;;;;;;2.75;1.10;;;;;;;;;;5059794;28;20049;-82
2022/07/19 10:39:33;;;;;;;1.65;1.20;;;;;;;;;;5059326;28;20094;-82
2022/07/19 10:42:13;;;;;;;1.60;1.27;;;;;;;;;;5078036;28;20044;-81
2022/07/19 10:45:02;;;;;;;3.03;1.10;;;;;;;;;;5078578;28;20052;-83
2022/07/19 10:47:32;;;;;;;2.28;1.20;;;;;;;;;;5060114;28;20052;-83
2022/07/19 10:50:04;;;;;;;2.67;1.10;;;;;;;;;;5061294;28;20080;-81
2022/07/19 10:52:34;;;;;;;2.15;0.90;;;;;;;;;;5059395;28;20498;-82
2022/07/19 10:55:18;;;;;;;3.70;1.10;;;;;;;;;;5076392;28;20049;-82
2022/07/19 10:57:46;;;;;;;2.97;1.27;;;;;;;;;;5076389;28;20479;-82
2022/07/19 11:00:19;;;;;;;2.67;1.20;;;;;;;;;;5059455;28;20055;-82
2022/07/19 11:02:47;;;;;;;2.40;1.10;;;;;;;;;;5076939;28;20056;-82
2022/07/19 11:05:21;;;;;;;3.88;0.90;;;;;;;;;;5059032;28;20136;-83
2022/07/19 11:07:51;;;;;;;2.10;1.10;;;;;;;;;;5058733;28;20102;-82
2022/07/19 11:10:23;;;;;;;2.13;1.00;;;;;;;;;;5077251;28;20063;-81
2022/07/19 11:12:50;;;;;;;1.17;1.00;;;;;;;;;;5077100;28;20496;-83
2022/07/19 11:15:17;;;;;;;3.90;1.20;;;;;;;;;;5077269;28;20071;-82
2022/07/19 11:17:56;;;;;;;1.42;1.10;;;;;;;;;;5060833;28;20078;-84
2022/07/19 11:20:24;;;;;;;3.70;1.20;;;;;;;;;;5061832;28;20049;-81
2022/07/19 11:22:52;;;;;;;3.75;1.05;;;;;;;;;;5059783;28;20084;-82
2022/07/19 11:25:30;;;;;;;8.02;1.25;;;;;;;;;;5059462;28;20048;-82
2022/07/19 11:27:58;;;;;;;3.97;0.98;;;;;;;;;;5059613;28;20045;-81
2022/07/19 11:30:26;;;;;;;1.27;1.17;;;;;;;;;;5059753;28;20052;-82
2022/07/19 11:32:55;;;;;;;1.75;1.38;;;;;;;;;;5077798;28;20071;-83
2022/07/19 11:35:22;;;;;;;4.07;1.10;;;;;;;;;;5059025;28;20061;-83
2022/07/19 11:37:52;;;;;;;1.88;1.20;;;;;;;;;;5058980;28;20087;-83
2022/07/19 11:40:20;;;;;;;2.08;1.20;;;;;;;;;;5076642;28;20044;-84
2022/07/19 11:42:47;;;;;;;3.75;1.10;;;;;;;;;;5058445;28;20044;-83
2022/07/19 11:45:42;;;;;;;3.45;1.23;;;;;;;;;;5076251;28;20139;-83
2022/07/19 11:48:11;;;;;;;1.50;1.20;;;;;;;;;;5076855;28;20051;-82
2022/07/19 11:50:41;;;;;;;4.95;1.20;;;;;;;;;;5058718;28;20074;-83
2022/07/19 11:53:20;;;;;;;2.92;1.13;;;;;;;;;;5075845;28;20048;-84
2022/07/19 11:55:48;;;;;;;2.42;1.10;;;;;;;;;;5058182;28;20040;-83
2022/07/19 11:58:15;;;;;;;3.35;1.38;;;;;;;;;;5058248;28;20052;-81
2022/07/19 12:00:43;;;;;;;3.00;1.15;;;;;;;;;;5060856;28;20048;-82
2022/07/19 12:03:14;;;;;;;4.32;1.38;;;;;;;;;;5061463;28;20051;-83
2022/07/19 12:05:55;;;;;;;3.42;1.40;;;;;;;;;;5059470;28;20055;-80
2022/07/19 12:08:32;;;;;;;3.60;1.45;;;;;;;;;;5060016;28;20047;-81
2022/07/19 12:10:59;;;;;;;2.83;1.40;;;;;;;;;;5075081;28;20056;-82
2022/07/19 12:13:34;;;;;;;2.95;1.20;;;;;;;;;;5057076;28;20048;-81
2022/07/19 12:16:07;;;;;;;3.03;1.50;;;;;;;;;;5057166;28;20417;-80
2022/07/19 12:18:47;;;;;;;6.05;1.48;;;;;;;;;;5057764;28;20079;-83
2022/07/19 12:21:24;;;;;;;3.35;1.33;;;;;;;;;;5057673;28;20044;-82
2022/07/19 12:24:10;;;;;;;2.50;1.13;;;;;;;;;;5057565;28;20140;-83
2022/07/19 12:26:38;;;;;;;7.28;1.10;;;;;;;;;;5057129;28;20540;-83
2022/07/19 12:29:21;;;;;;;6.47;1.30;;;;;;;;;;5059722;28;20048;-83
2022/07/19 12:31:49;;;;;;;3.70;1.25;;;;;;;;;;5075142;28;20049;-84
2022/07/19 12:34:17;;;;;;;6.35;1.20;;;;;;;;;;5076211;28;20545;-84
2022/07/19 12:36:45;;;;;;;3.05;1.27;;;;;;;;;;5058232;28;20048;-83
2022/07/19 12:39:23;;;;;;;1.60;1.13;;;;;;;;;;5057901;28;20044;-84
2022/07/19 12:41:58;;;;;;;1.73;1.30;;;;;;;;;;5056857;28;20553;-83
2022/07/19 12:44:26;;;;;;;1.17;1.08;;;;;;;;;;5058118;28;20074;-86
2022/07/19 12:46:54;;;;;;;1.73;1.23;;;;;;;;;;5057251;28;20059;-84
2022/07/19 12:49:45;;;;;;;5.65;1.20;;;;;;;;;;5060670;28;20139;-83
2022/07/19 12:52:12;;;;;;;3.92;1.60;;;;;;;;;;5058246;28;20566;-83
2022/07/19 12:54:40;;;;;;;2.03;1.30;;;;;;;;;;5057711;28;20048;-83
2022/07/19 12:57:07;;;;;;;2.38;1.35;;;;;;;;;;5057665;28;20052;-82
2022/07/19 12:59:40;;;;;;;4.53;1.30;;;;;;;;;;5075221;28;20052;-84
2022/07/19 13:02:12;;;;;;;2.15;1.10;;;;;;;;;;5060791;28;20049;-83
2022/07/19 13:04:40;;;;;;;1.88;1.17;;;;;;;;;;5057862;28;20045;-80
2022/07/19 13:07:08;;;;;;;5.15;1.35;;;;;;;;;;5058374;28;20052;-82
2022/07/19 13:09:35;;;;;;;3.08;1.27;;;;;;;;;;5057336;28;20441;-82
2022/07/19 13:12:05;;;;;;;5.65;1.45;;;;;;;;;;5074572;28;20044;-82
2022/07/19 13:14:32;;;;;;;4.00;1.25;;;;;;;;;;5056372;28;20110;-82
2022/07/19 13:17:00;;;;;;;3.70;1.17;;;;;;;;;;5058109;28;20478;-84
2022/07/19 13:19:27;;;;;;;2.42;1.40;;;;;;;;;;5057704;28;20052;-85
2022/07/19 13:21:54;;;;;;;1.67;1.27;;;;;;;;;;5057129;28;20044;-82
2022/07/19 13:24:21;;;;;;;2.88;1.30;;;;;;;;;;5057885;28;20049;-84
2022/07/19 13:27:09;;;;;;;5.13;1.40;;;;;;;;;;5061203;28;20142;-83
2022/07/19 13:29:38;;;;;;;2.22;1.05;;;;;;;;;;5074764;28;20125;-83
2022/07/19 13:32:05;;;;;;;4.43;1.60;;;;;;;;;;5056686;28;20045;-83
2022/07/19 13:34:33;;;;;;;3.70;1.20;;;;;;;;;;5073888;28;20055;-84
2022/07/19 13:37:00;;;;;;;3.72;1.30;;;;;;;;;;5074300;28;20048;-83
2022/07/19 13:39:28;;;;;;;3.25;1.42;;;;;;;;;;5056119;28;20049;-83
2022/07/19 13:41:55;;;;;;;2.55;1.40;;;;;;;;;;5056388;28;20445;-82
2022/07/19 13:44:22;;;;;;;3.83;1.20;;;;;;;;;;5056207;28;20122;-82
2022/07/19 13:46:50;;;;;;;2.38;1.30;;;;;;;;;;5056265;28;20098;-83
2022/07/19 13:49:17;;;;;;;1.85;1.20;;;;;;;;;;5056772;28;20049;-82
2022/07/19 13:51:44;;;;;;;2.35;1.15;;;;;;;;;;5073426;28;20048;-82
2022/07/19 13:54:13;;;;;;;4.63;1.20;;;;;;;;;;5056063;28;20055;-82
2022/07/19 13:56:40;;;;;;;2.60;1.45;;;;;;;;;;5059944;28;20052;-82
2022/07/19 13:59:07;;;;;;;1.88;1.40;;;;;;;;;;5059212;28;20114;-83
2022/07/19 14:01:34;;;;;;;2.00;1.30;;;;;;;;;;5058187;28;20080;-83
2022/07/19 14:04:12;;;;;;;3.85;1.60;;;;;;;;;;5059245;28;20053;-83
2022/07/19 14:06:48;;;;;;;2.65;1.27;;;;;;;;;;5059374;28;20044;-83
2022/07/19 14:09:15;;;;;;;4.55;1.70;;;;;;;;;;5058109;28;20044;-83
2022/07/19 14:11:44;;;;;;;1.60;1.50;;;;;;;;;;5057921;28;20056;-82
2022/07/19 14:14:12;;;;;;;1.95;1.38;;;;;;;;;;5058411;28;20074;-84
2022/07/19 14:16:39;;;;;;;4.32;1.10;;;;;;;;;;5059170;28;20836;-83
2022/07/19 14:19:07;;;;;;;3.10;1.33;;;;;;;;;;5060132;28;20098;-84
2022/07/19 14:21:35;;;;;;;5.60;1.52;;;;;;;;;;5059168;28;20094;-85
2022/07/19 14:24:03;;;;;;;5.53;1.40;;;;;;;;;;5061154;28;20044;-85
2022/07/19 14:26:30;;;;;;;3.65;1.13;;;;;;;;;;5059902;28;20056;-84
2022/07/19 14:28:57;;;;;;;2.40;1.40;;;;;;;;;;5059452;28;20460;-82
2022/07/19 14:31:25;;;;;;;2.55;1.20;;;;;;;;;;5060294;28;20456;-84
2022/07/19 14:33:52;;;;;;;2.80;1.30;;;;;;;;;;5060987;28;20432;-83
2022/07/19 14:36:39;;;;;;;3.03;1.42;;;;;;;;;;5063195;28;20056;-83
2022/07/19 14:39:08;;;;;;;3.30;1.20;;;;;;;;;;5060294;28;20057;-82
2022/07/19 14:41:36;;;;;;;3.40;1.40;;;;;;;;;;5060477;28;20049;-83
2022/07/19 14:44:04;;;;;;;1.67;1.40;;;;;;;;;;5078174;28;20044;-83
2022/07/19 14:46:31;;;;;;;4.78;1.38;;;;;;;;;;5061024;28;20478;-83
2022/07/19 14:48:59;;;;;;;5.50;1.30;;;;;;;;;;5079675;28;20575;-83
2022/07/19 14:51:26;;;;;;;2.85;1.30;;;;;;;;;;5077118;28;20562;-83
2022/07/19 14:53:53;;;;;;;1.52;1.40;;;;;;;;;;5077665;28;20094;-82